Time;durP1;ratioP1;P1;durP2;ratioP2;P2;SDS_P1;SDS_P2;PMS_P1;PMS_P2;Temp;Humidity;BMP_temperature;BMP_pressure;BME280_temperature;BME280_humidity;BME280_pressure;Samples;Min_cycle;Max_cycle;Signal;HPM_P1;HPM_P2
2022/02/02 00:01:01;;;;;;;3.45;1.60;;;;;;;;;;5072758;28;20027;-81
2022/02/02 00:03:27;;;;;;;3.10;1.50;;;;;;;;;;5064478;28;20029;-80
2022/02/02 00:06:08;;;;;;;3.00;1.40;;;;;;;;;;5068250;28;20032;-79
2022/02/02 00:08:47;;;;;;;3.78;1.75;;;;;;;;;;5068733;28;20089;-80
2022/02/02 00:11:51;;;;;;;3.42;1.70;;;;;;;;;;5083423;28;20020;-81
2022/02/02 00:17:01;;;;;;;3.50;1.40;;;;;;;;;;5083513;28;20048;-82
2022/02/02 00:19:55;;;;;;;3.28;1.65;;;;;;;;;;5067832;28;20025;-81
2022/02/02 00:22:28;;;;;;;3.95;2.08;;;;;;;;;;5065490;28;20032;-82
2022/02/02 00:25:16;;;;;;;3.83;1.77;;;;;;;;;;5085037;28;20024;-81
2022/02/02 00:27:45;;;;;;;2.63;1.20;;;;;;;;;;5082745;28;20098;-80
2022/02/02 00:30:16;;;;;;;3.00;1.42;;;;;;;;;;5079047;28;20051;-81
2022/02/02 00:33:00;;;;;;;3.63;1.60;;;;;;;;;;5063434;28;20036;-83
2022/02/02 00:35:32;;;;;;;3.80;1.60;;;;;;;;;;5046538;28;20024;-80
2022/02/02 00:37:58;;;;;;;3.20;1.50;;;;;;;;;;5073763;28;20471;-79
2022/02/02 00:40:25;;;;;;;3.13;1.40;;;;;;;;;;5065409;28;20074;-83
2022/02/02 00:42:51;;;;;;;4.05;1.75;;;;;;;;;;5066670;28;20040;-80
2022/02/02 00:45:19;;;;;;;3.95;1.65;;;;;;;;;;5084106;28;20542;-80
2022/02/02 00:47:49;;;;;;;3.17;1.50;;;;;;;;;;5068480;28;20032;-80
2022/02/02 00:50:16;;;;;;;3.50;1.65;;;;;;;;;;5062921;28;20025;-81
2022/02/02 00:52:43;;;;;;;3.78;1.83;;;;;;;;;;5065386;28;20037;-79
2022/02/02 00:55:09;;;;;;;4.20;1.80;;;;;;;;;;5047534;28;20081;-82
2022/02/02 00:57:35;;;;;;;4.32;2.05;;;;;;;;;;5047360;28;20021;-81
2022/02/02 01:00:01;;;;;;;4.72;2.33;;;;;;;;;;5048512;28;20029;-81
2022/02/02 01:02:27;;;;;;;4.63;2.20;;;;;;;;;;5056999;28;20040;-80
2022/02/02 01:04:55;;;;;;;3.97;1.83;;;;;;;;;;5093322;28;20051;-80
2022/02/02 01:07:42;;;;;;;4.53;2.13;;;;;;;;;;5091010;28;20024;-79
2022/02/02 01:10:18;;;;;;;3.35;1.60;;;;;;;;;;5088881;28;20025;-81
2022/02/02 01:18:32;;;;;;;3.75;1.60;;;;;;;;;;5087755;28;20063;-82
2022/02/02 01:21:04;;;;;;;4.30;2.00;;;;;;;;;;5069060;28;20067;-79
2022/02/02 01:29:01;;;;;;;3.80;2.00;;;;;;;;;;5083040;28;20044;-81
2022/02/02 01:31:27;;;;;;;3.72;1.80;;;;;;;;;;5086551;28;20030;-81
2022/02/02 01:33:53;;;;;;;3.70;1.98;;;;;;;;;;5086104;28;20012;-79
2022/02/02 01:36:20;;;;;;;3.72;1.92;;;;;;;;;;5080823;28;20059;-80
2022/02/02 01:38:48;;;;;;;4.63;1.98;;;;;;;;;;5049613;28;20028;-81
2022/02/02 01:41:26;;;;;;;3.63;1.80;;;;;;;;;;5080011;28;20020;-80
2022/02/02 01:44:02;;;;;;;4.15;2.03;;;;;;;;;;5086590;28;20013;-82
2022/02/02 01:46:32;;;;;;;3.60;1.83;;;;;;;;;;5069391;28;20024;-80
2022/02/02 01:51:57;;;;;;;3.65;1.42;;;;;;;;;;5080341;28;20051;-79
2022/02/02 01:54:35;;;;;;;3.42;1.83;;;;;;;;;;5075811;28;20021;-82
2022/02/02 01:57:11;;;;;;;3.80;1.60;;;;;;;;;;5066117;28;20017;-79
2022/02/02 01:59:40;;;;;;;3.55;1.75;;;;;;;;;;5058437;28;20051;-81
2022/02/02 02:02:09;;;;;;;2.95;1.40;;;;;;;;;;5085060;28;20021;-80
2022/02/02 02:04:36;;;;;;;3.67;1.70;;;;;;;;;;5049373;28;20025;-80
2022/02/02 02:07:03;;;;;;;3.97;1.63;;;;;;;;;;5049143;28;20120;-80
2022/02/02 02:09:30;;;;;;;3.22;1.38;;;;;;;;;;5047795;28;20036;-80
2022/02/02 02:12:04;;;;;;;4.07;1.60;;;;;;;;;;5048423;28;20029;-80
2022/02/02 02:16:57;;;;;;;3.33;1.30;;;;;;;;;;5085731;28;20024;-80
2022/02/02 02:19:24;;;;;;;2.60;1.20;;;;;;;;;;5050309;28;20036;-80
2022/02/02 02:21:54;;;;;;;3.67;1.40;;;;;;;;;;5065681;28;20546;-81
2022/02/02 02:24:21;;;;;;;3.38;1.50;;;;;;;;;;5072592;28;20039;-81
2022/02/02 02:26:48;;;;;;;3.10;1.48;;;;;;;;;;5086769;28;20111;-81
2022/02/02 02:32:04;;;;;;;3.58;1.23;;;;;;;;;;5088033;28;20035;-80
2022/02/02 02:35:00;;;;;;;2.30;1.10;;;;;;;;;;5060519;28;20025;-81
2022/02/02 02:56:15;;;;;;;3.85;2.03;;;;;;;;;;5066040;28;20036;-80
2022/02/02 03:30:54;;;;;;;3.20;1.40;;;;;;;;;;5064206;28;20059;-80
2022/02/02 03:50:06;;;;;;;4.18;1.05;;;;;;;;;;5076425;28;20071;-79
2022/02/02 03:58:20;;;;;;;2.30;0.80;;;;;;;;;;5085816;28;20029;-81
2022/02/02 04:10:44;;;;;;;1.92;0.90;;;;;;;;;;5063856;28;20063;-81
2022/02/02 04:13:25;;;;;;;3.25;1.02;;;;;;;;;;5045728;28;20052;-80
2022/02/02 04:38:14;;;;;;;3.38;1.30;;;;;;;;;;5082580;28;20028;-79
2022/02/02 05:04:59;;;;;;;3.00;1.10;;;;;;;;;;5070048;28;20021;-82
2022/02/02 05:45:37;;;;;;;2.80;1.00;;;;;;;;;;4993812;28;20537;-79
2022/02/02 05:53:34;;;;;;;1.80;0.70;;;;;;;;;;5075741;28;20040;-81
2022/02/02 05:56:01;;;;;;;1.77;0.65;;;;;;;;;;5051160;28;20021;-81
2022/02/02 05:58:29;;;;;;;1.13;0.60;;;;;;;;;;5052641;28;20025;-82
2022/02/02 06:00:56;;;;;;;1.75;0.50;;;;;;;;;;5056856;28;20020;-81
2022/02/02 06:03:26;;;;;;;1.90;0.50;;;;;;;;;;5076909;28;20063;-82
2022/02/02 06:05:54;;;;;;;1.20;0.57;;;;;;;;;;5072031;28;20025;-80
2022/02/02 06:08:21;;;;;;;1.80;0.60;;;;;;;;;;5073174;28;20039;-80
2022/02/02 06:10:47;;;;;;;1.33;0.60;;;;;;;;;;5070575;28;20029;-82
2022/02/02 06:13:13;;;;;;;4.32;1.17;;;;;;;;;;5058692;28;20056;-80
2022/02/02 06:15:42;;;;;;;2.88;0.95;;;;;;;;;;5067291;28;20456;-80
2022/02/02 06:18:08;;;;;;;2.58;0.70;;;;;;;;;;5050692;28;20048;-81
2022/02/02 06:20:34;;;;;;;4.75;1.60;;;;;;;;;;5067941;28;20050;-79
2022/02/02 06:23:19;;;;;;;4.00;1.35;;;;;;;;;;5058294;28;20032;-80
2022/02/02 06:25:46;;;;;;;4.13;1.30;;;;;;;;;;5050225;28;20407;-82
2022/02/02 06:28:17;;;;;;;3.25;1.17;;;;;;;;;;5085731;28;20535;-80
2022/02/02 06:30:43;;;;;;;4.07;1.02;;;;;;;;;;5057990;28;20036;-81
2022/02/02 06:33:12;;;;;;;2.28;0.77;;;;;;;;;;5054991;28;20032;-80
2022/02/02 06:35:39;;;;;;;2.70;0.70;;;;;;;;;;5061430;28;20028;-81
2022/02/02 06:38:06;;;;;;;2.78;0.88;;;;;;;;;;5058385;28;20039;-81
2022/02/02 06:40:33;;;;;;;3.90;1.25;;;;;;;;;;5071795;28;20061;-81
2022/02/02 06:42:59;;;;;;;3.10;0.95;;;;;;;;;;5072055;28;20529;-81
2022/02/02 06:45:26;;;;;;;2.78;1.00;;;;;;;;;;5073315;28;20037;-81
2022/02/02 06:47:53;;;;;;;3.88;1.20;;;;;;;;;;5070361;28;20055;-79
2022/02/02 06:50:27;;;;;;;3.95;1.73;;;;;;;;;;5059395;28;20028;-82
2022/02/02 06:53:12;;;;;;;2.83;1.13;;;;;;;;;;5075715;28;20032;-81
2022/02/02 06:55:48;;;;;;;2.95;1.35;;;;;;;;;;5075806;28;20028;-80
2022/02/02 06:58:28;;;;;;;2.97;0.98;;;;;;;;;;5073723;28;20027;-81
2022/02/02 07:01:14;;;;;;;2.75;0.80;;;;;;;;;;5084316;28;20036;-80
2022/02/02 07:03:59;;;;;;;3.05;1.13;;;;;;;;;;5064796;28;20070;-81
2022/02/02 07:06:43;;;;;;;2.92;0.90;;;;;;;;;;5064206;28;20021;-80
2022/02/02 07:09:48;;;;;;;4.13;1.05;;;;;;;;;;5084691;28;20487;-80
2022/02/02 07:12:15;;;;;;;3.78;1.20;;;;;;;;;;5084406;28;20097;-80
2022/02/02 07:17:39;;;;;;;4.32;1.45;;;;;;;;;;5085847;28;20025;-81
2022/02/02 07:23:07;;;;;;;2.10;0.73;;;;;;;;;;5068132;28;20033;-80
2022/02/02 07:28:22;;;;;;;2.63;0.90;;;;;;;;;;5068703;28;20064;-81
2022/02/02 07:33:21;;;;;;;3.22;1.00;;;;;;;;;;5068627;28;20056;-80
2022/02/02 07:36:00;;;;;;;2.45;0.85;;;;;;;;;;5069545;28;20017;-81
2022/02/02 07:38:30;;;;;;;3.75;1.27;;;;;;;;;;5071149;28;20021;-80
2022/02/02 07:41:08;;;;;;;3.30;1.00;;;;;;;;;;5051351;28;20021;-79
2022/02/02 07:43:37;;;;;;;3.85;1.10;;;;;;;;;;5068838;28;20020;-81
2022/02/02 07:46:04;;;;;;;3.50;1.10;;;;;;;;;;5052569;28;20048;-82
2022/02/02 07:48:34;;;;;;;3.40;1.05;;;;;;;;;;5070940;28;20057;-80
2022/02/02 07:51:02;;;;;;;4.15;1.30;;;;;;;;;;5065228;28;20028;-81
2022/02/02 07:53:35;;;;;;;5.65;1.38;;;;;;;;;;5067958;28;20064;-80
2022/02/02 07:56:08;;;;;;;5.22;1.25;;;;;;;;;;5067064;28;20036;-81
2022/02/02 07:58:37;;;;;;;6.53;2.75;;;;;;;;;;5064513;28;20021;-82
2022/02/02 08:01:03;;;;;;;3.70;1.20;;;;;;;;;;5065279;28;20029;-80
2022/02/02 08:03:37;;;;;;;7.50;1.85;;;;;;;;;;5064811;28;20503;-80
2022/02/02 08:06:04;;;;;;;4.05;1.50;;;;;;;;;;5066844;28;20025;-82
2022/02/02 08:08:34;;;;;;;5.13;1.42;;;;;;;;;;5067442;28;20040;-82
2022/02/02 08:11:05;;;;;;;4.10;1.05;;;;;;;;;;5067141;28;20025;-81
2022/02/02 08:13:47;;;;;;;4.57;1.08;;;;;;;;;;5067584;28;20100;-81
2022/02/02 08:16:19;;;;;;;4.17;0.80;;;;;;;;;;5067810;28;20013;-82
2022/02/02 08:18:53;;;;;;;3.60;0.90;;;;;;;;;;5068565;28;20028;-82
2022/02/02 08:21:30;;;;;;;4.07;0.82;;;;;;;;;;5054891;28;20033;-81
2022/02/02 08:23:58;;;;;;;2.72;0.80;;;;;;;;;;5065517;28;20036;-79
2022/02/02 08:26:25;;;;;;;3.70;1.20;;;;;;;;;;5067537;28;20055;-80
2022/02/02 08:28:58;;;;;;;5.43;1.23;;;;;;;;;;5066088;28;20044;-80
2022/02/02 08:31:26;;;;;;;3.42;1.17;;;;;;;;;;5065359;28;20149;-80
2022/02/02 08:33:56;;;;;;;3.97;1.20;;;;;;;;;;5067013;28;20033;-80
2022/02/02 08:36:23;;;;;;;4.00;1.05;;;;;;;;;;5065143;28;20024;-81
2022/02/02 08:43:56;;;;;;;3.17;0.90;;;;;;;;;;5046228;28;20072;-80
2022/02/02 08:46:39;;;;;;;;;;;;;;;;;;5043561;28;20043;-81
2022/02/02 08:49:09;;;;;;;3.65;0.95;;;;;;;;;;5054645;28;19909;-80
2022/02/02 08:51:41;;;;;;;4.03;1.13;;;;;;;;;;5049633;28;20136;-80
2022/02/02 09:02:05;;;;;;;3.80;0.90;;;;;;;;;;5064199;28;20253;-80
2022/02/02 09:07:19;;;;;;;3.38;1.38;;;;;;;;;;5063203;28;20040;-79
2022/02/02 09:09:58;;;;;;;4.90;1.40;;;;;;;;;;5062983;28;20049;-80
2022/02/02 09:34:10;;;;;;;4.47;2.08;;;;;;;;;;5088396;28;20063;-81
2022/02/02 09:36:42;;;;;;;3.17;1.58;;;;;;;;;;5087693;28;20013;-79
2022/02/02 09:39:12;;;;;;;3.88;1.40;;;;;;;;;;5053427;28;20033;-81
2022/02/02 09:41:45;;;;;;;5.43;2.05;;;;;;;;;;5069515;28;20048;-82
2022/02/02 09:47:27;;;;;;;5.75;2.28;;;;;;;;;;5079688;28;20024;-84
2022/02/02 09:50:20;;;;;;;4.63;2.00;;;;;;;;;;5066547;28;20025;-82
2022/02/02 09:52:51;;;;;;;4.75;1.48;;;;;;;;;;5078205;28;20051;-82
2022/02/02 09:55:34;;;;;;;4.85;1.88;;;;;;;;;;5071099;28;20048;-83
2022/02/02 10:06:21;;;;;;;2.85;1.05;;;;;;;;;;5081245;28;20044;-83
2022/02/02 10:09:13;;;;;;;2.28;0.88;;;;;;;;;;5060939;28;20059;-83
2022/02/02 10:14:17;;;;;;;2.40;1.00;;;;;;;;;;5069878;28;20047;-82
2022/02/02 10:16:49;;;;;;;4.20;1.10;;;;;;;;;;5087585;28;20027;-80
2022/02/02 10:19:18;;;;;;;3.75;1.00;;;;;;;;;;5089848;28;20016;-82
2022/02/02 10:21:44;;;;;;;3.40;0.90;;;;;;;;;;5055156;28;20033;-82
2022/02/02 10:24:11;;;;;;;3.78;1.48;;;;;;;;;;5108229;28;20259;-81
2022/02/02 10:26:51;;;;;;;4.13;0.98;;;;;;;;;;5060309;28;20484;-80
2022/02/02 10:29:17;;;;;;;5.18;1.23;;;;;;;;;;5070376;28;20048;-81
2022/02/02 10:31:48;;;;;;;3.08;1.10;;;;;;;;;;5089543;28;20364;-81
2022/02/02 10:34:21;;;;;;;3.25;1.10;;;;;;;;;;5067059;28;20017;-82
2022/02/02 10:36:47;;;;;;;;;;;;;;;;;;5071920;28;20047;-82
2022/02/02 10:39:16;;;;;;;3.67;0.90;;;;;;;;;;5067589;28;19908;-83
2022/02/02 10:41:49;;;;;;;2.42;0.80;;;;;;;;;;5077597;28;20036;-82
2022/02/02 10:44:22;;;;;;;3.58;1.33;;;;;;;;;;5063491;28;20028;-80
2022/02/02 10:47:06;;;;;;;5.55;1.15;;;;;;;;;;5086100;28;20110;-82
2022/02/02 10:52:31;;;;;;;3.28;0.85;;;;;;;;;;5086136;28;20049;-82
2022/02/02 10:58:05;;;;;;;2.90;0.70;;;;;;;;;;5072963;28;20036;-80
2022/02/02 11:09:23;;;;;;;3.20;0.88;;;;;;;;;;4986276;28;20139;-82
2022/02/02 11:11:50;;;;;;;3.35;1.20;;;;;;;;;;4985956;28;20060;-82
2022/02/02 11:14:19;;;;;;;5.07;1.30;;;;;;;;;;4984425;28;20065;-82
2022/02/02 11:16:49;;;;;;;4.68;1.67;;;;;;;;;;4983539;28;20497;-82
2022/02/02 11:19:17;;;;;;;5.05;1.55;;;;;;;;;;4984730;28;20039;-82
2022/02/02 11:21:43;;;;;;;3.38;1.35;;;;;;;;;;4984724;28;20047;-82
2022/02/02 11:24:18;;;;;;;3.60;0.90;;;;;;;;;;4984776;28;20101;-82
2022/02/02 11:26:53;;;;;;;2.67;1.00;;;;;;;;;;4984001;28;20098;-83
2022/02/02 11:29:38;;;;;;;3.78;1.10;;;;;;;;;;4984248;28;20043;-83
2022/02/02 11:32:06;;;;;;;4.30;1.23;;;;;;;;;;4983697;28;20038;-82
2022/02/02 11:34:32;;;;;;;3.58;1.10;;;;;;;;;;4986504;28;20097;-83
2022/02/02 11:37:01;;;;;;;3.08;1.02;;;;;;;;;;4985503;28;20534;-82
2022/02/02 11:39:45;;;;;;;3.45;1.10;;;;;;;;;;4998813;28;20034;-83
2022/02/02 11:42:39;;;;;;;3.20;0.88;;;;;;;;;;4987158;28;20036;-83
2022/02/02 11:45:28;;;;;;;2.55;0.90;;;;;;;;;;5023718;28;20032;-82
2022/02/02 11:47:54;;;;;;;3.28;1.38;;;;;;;;;;5062457;28;20066;-83
2022/02/02 11:50:40;;;;;;;3.15;1.10;;;;;;;;;;5060590;28;20024;-81
2022/02/02 11:53:06;;;;;;;3.28;1.13;;;;;;;;;;5062213;28;20128;-80
2022/02/02 11:55:32;;;;;;;3.13;1.00;;;;;;;;;;5062927;28;20024;-82
2022/02/02 11:58:12;;;;;;;5.22;1.23;;;;;;;;;;5057720;28;20085;-82
2022/02/02 12:00:55;;;;;;;3.40;1.50;;;;;;;;;;5049945;28;20162;-81
2022/02/02 12:03:57;;;;;;;2.30;1.00;;;;;;;;;;5047328;28;20026;-83
2022/02/02 12:09:20;;;;;;;4.28;1.23;;;;;;;;;;5066070;28;20029;-81
2022/02/02 12:57:43;;;;;;;4.68;1.45;;;;;;;;;;5069272;28;20025;-81
2022/02/02 13:00:13;;;;;;;3.97;1.10;;;;;;;;;;5063238;28;20033;-81
2022/02/02 13:02:40;;;;;;;3.17;1.13;;;;;;;;;;5071090;28;20025;-82
2022/02/02 13:05:08;;;;;;;4.47;1.73;;;;;;;;;;5072856;28;20028;-82
2022/02/02 13:07:34;;;;;;;3.88;1.27;;;;;;;;;;5069014;28;20037;-80
2022/02/02 13:10:04;;;;;;;4.05;1.60;;;;;;;;;;5062589;28;20017;-81
2022/02/02 13:12:42;;;;;;;3.72;1.30;;;;;;;;;;5088567;28;20024;-81
2022/02/02 13:26:07;;;;;;;3.15;1.33;;;;;;;;;;5028812;28;20038;-83
2022/02/02 13:28:51;;;;;;;3.20;1.08;;;;;;;;;;5024865;28;20034;-82
2022/02/02 13:31:26;;;;;;;3.45;1.40;;;;;;;;;;5025387;28;20040;-81
2022/02/02 13:34:02;;;;;;;3.45;1.00;;;;;;;;;;5027658;28;20033;-82
2022/02/02 13:36:53;;;;;;;3.55;0.90;;;;;;;;;;5023070;28;20117;-81
2022/02/02 13:48:08;;;;;;;3.08;1.05;;;;;;;;;;5027541;28;20476;-83
2022/02/02 13:56:19;;;;;;;3.72;1.10;;;;;;;;;;5026947;28;20129;-81
2022/02/02 14:01:27;;;;;;;2.92;1.00;;;;;;;;;;5070373;28;20085;-81
2022/02/02 14:04:10;;;;;;;10.05;1.55;;;;;;;;;;5067796;28;20017;-81
2022/02/02 14:31:43;;;;;;;3.65;1.05;;;;;;;;;;5073789;28;20032;-81
2022/02/02 14:34:09;;;;;;;5.50;1.80;;;;;;;;;;5072190;28;20043;-81
2022/02/02 14:36:37;;;;;;;3.63;1.48;;;;;;;;;;5051248;28;20072;-81
2022/02/02 14:39:23;;;;;;;4.30;1.17;;;;;;;;;;5052343;28;20025;-80
2022/02/02 14:41:55;;;;;;;6.68;1.40;;;;;;;;;;5051921;28;20029;-81
2022/02/02 14:44:27;;;;;;;4.77;1.37;;;;;;;;;;5051400;28;20022;-81
2022/02/02 14:49:56;;;;;;;6.40;1.40;;;;;;;;;;5068409;28;20344;-81
2022/02/02 14:52:43;;;;;;;6.78;1.45;;;;;;;;;;5068121;28;20056;-84
2022/02/02 15:27:59;;;;;;;5.32;1.17;;;;;;;;;;5067949;28;20036;-81
2022/02/02 15:30:31;;;;;;;3.20;1.05;;;;;;;;;;5066971;28;20029;-80
2022/02/02 15:33:01;;;;;;;3.45;1.23;;;;;;;;;;5067670;28;20025;-82
2022/02/02 15:35:29;;;;;;;3.33;0.95;;;;;;;;;;5058925;28;20025;-81
2022/02/02 15:40:30;;;;;;;4.38;1.13;;;;;;;;;;5047466;28;20026;-82
2022/02/02 15:58:48;;;;;;;3.70;1.08;;;;;;;;;;5089763;28;20032;-81
2022/02/02 16:03:59;;;;;;;3.28;1.13;;;;;;;;;;5089222;28;19912;-82
2022/02/02 16:06:27;;;;;;;2.25;0.93;;;;;;;;;;5055651;28;20017;-82
2022/02/02 16:09:09;;;;;;;4.40;1.10;;;;;;;;;;5050836;28;20025;-82
2022/02/02 16:11:36;;;;;;;3.47;1.20;;;;;;;;;;5050375;28;20024;-82
2022/02/02 16:14:05;;;;;;;2.75;0.82;;;;;;;;;;5053955;28;20453;-82
2022/02/02 16:19:03;;;;;;;4.20;1.30;;;;;;;;;;5087827;28;20032;-83
2022/02/02 16:38:03;;;;;;;3.30;1.30;;;;;;;;;;5085843;28;20039;-82
2022/02/02 16:40:34;;;;;;;2.70;1.17;;;;;;;;;;5070063;28;20020;-83
2022/02/02 16:43:13;;;;;;;4.35;1.40;;;;;;;;;;5069158;28;20028;-83
2022/02/02 16:45:40;;;;;;;3.50;1.30;;;;;;;;;;5066292;28;20021;-84
2022/02/02 16:48:06;;;;;;;4.07;1.35;;;;;;;;;;5061160;28;20100;-82
2022/02/02 16:50:36;;;;;;;3.72;1.30;;;;;;;;;;5081501;28;20025;-83
2022/02/02 16:53:13;;;;;;;4.40;1.40;;;;;;;;;;5069099;28;20135;-82
2022/02/02 16:56:03;;;;;;;3.60;1.20;;;;;;;;;;5066437;28;20339;-82
2022/02/02 17:30:52;;;;;;;6.95;1.75;;;;;;;;;;5087532;28;20044;-83
2022/02/02 17:33:27;;;;;;;4.53;1.70;;;;;;;;;;5066027;28;20089;-81
2022/02/02 17:58:46;;;;;;;3.78;1.48;;;;;;;;;;5089850;28;20033;-82
2022/02/02 18:01:32;;;;;;;4.50;1.40;;;;;;;;;;5088734;28;20017;-82
2022/02/02 18:19:11;;;;;;;4.10;1.52;;;;;;;;;;5069443;28;20037;-82
2022/02/02 18:21:37;;;;;;;6.47;1.60;;;;;;;;;;5050999;28;20028;-83
2022/02/02 18:24:13;;;;;;;6.03;1.63;;;;;;;;;;5058023;28;20024;-82
2022/02/02 18:32:17;;;;;;;4.53;1.55;;;;;;;;;;4979271;28;20086;-82
2022/02/02 18:34:58;;;;;;;5.28;1.70;;;;;;;;;;4982187;28;20098;-82
2022/02/02 19:01:40;;;;;;;4.10;1.70;;;;;;;;;;4988393;28;20045;-83
2022/02/02 19:55:24;;;;;;;5.85;1.40;;;;;;;;;;5075762;28;20066;-81
2022/02/02 20:03:52;;;;;;;3.92;1.52;;;;;;;;;;5071302;28;20060;-81
2022/02/02 20:11:38;;;;;;;4.60;1.98;;;;;;;;;;5084775;28;20033;-82
2022/02/02 20:14:05;;;;;;;6.45;2.65;;;;;;;;;;5074712;28;20115;-83
2022/02/02 20:16:31;;;;;;;11.48;5.45;;;;;;;;;;5071524;28;20088;-82
2022/02/02 20:18:59;;;;;;;6.45;2.80;;;;;;;;;;5050222;28;20025;-82
2022/02/02 20:21:31;;;;;;;8.82;3.80;;;;;;;;;;5050741;28;20102;-81
2022/02/02 20:24:00;;;;;;;5.97;1.77;;;;;;;;;;5061680;28;20032;-81
2022/02/02 20:26:28;;;;;;;7.85;2.63;;;;;;;;;;5087354;28;20085;-83
2022/02/02 20:28:55;;;;;;;8.40;3.22;;;;;;;;;;5071763;28;20024;-82
2022/02/02 20:31:21;;;;;;;13.07;4.30;;;;;;;;;;5069888;28;20017;-82
2022/02/02 20:33:47;;;;;;;7.95;3.47;;;;;;;;;;5055446;28;20079;-83
2022/02/02 20:36:13;;;;;;;10.70;4.85;;;;;;;;;;5067682;28;20055;-81
2022/02/02 20:38:40;;;;;;;8.18;4.10;;;;;;;;;;5069675;28;20029;-82
2022/02/02 20:41:07;;;;;;;9.70;3.30;;;;;;;;;;5054710;28;20036;-83
2022/02/02 20:43:45;;;;;;;8.77;4.00;;;;;;;;;;5080752;28;20032;-83
2022/02/02 21:05:35;;;;;;;7.22;1.77;;;;;;;;;;5078119;28;20094;-82
2022/02/02 21:08:15;;;;;;;7.63;1.65;;;;;;;;;;5062658;28;20561;-82
2022/02/02 21:10:44;;;;;;;5.22;1.73;;;;;;;;;;5059510;28;20068;-82
2022/02/02 21:15:55;;;;;;;7.68;2.10;;;;;;;;;;5065937;28;20052;-82
2022/02/02 21:18:30;;;;;;;3.75;1.50;;;;;;;;;;5066971;28;20029;-82
2022/02/02 21:21:16;;;;;;;5.28;2.03;;;;;;;;;;5088466;28;20021;-83
2022/02/02 21:29:13;;;;;;;7.15;2.33;;;;;;;;;;5084002;28;20025;-81
2022/02/02 21:31:39;;;;;;;6.45;2.13;;;;;;;;;;5073067;28;20032;-81
2022/02/02 21:34:05;;;;;;;5.78;1.77;;;;;;;;;;5056623;28;20182;-82
2022/02/02 21:36:35;;;;;;;3.95;1.70;;;;;;;;;;5054950;28;20033;-82
2022/02/02 21:39:06;;;;;;;5.63;1.80;;;;;;;;;;5079645;28;20040;-84
2022/02/02 21:41:35;;;;;;;5.55;1.92;;;;;;;;;;5087003;28;20013;-81
2022/02/02 21:44:03;;;;;;;4.32;1.40;;;;;;;;;;5073709;28;20028;-82
2022/02/02 21:46:29;;;;;;;4.13;1.63;;;;;;;;;;5073340;28;20040;-81
2022/02/02 21:48:57;;;;;;;4.85;1.90;;;;;;;;;;5069699;28;20029;-82
2022/02/02 21:51:27;;;;;;;5.32;1.80;;;;;;;;;;5066321;28;20028;-84
2022/02/02 21:53:54;;;;;;;4.90;1.58;;;;;;;;;;5059562;28;20032;-81
2022/02/02 21:56:20;;;;;;;4.75;1.60;;;;;;;;;;5079572;28;20068;-82
2022/02/02 21:58:47;;;;;;;4.95;1.80;;;;;;;;;;5073410;28;20055;-82
2022/02/02 22:01:13;;;;;;;6.90;1.80;;;;;;;;;;5079764;28;20091;-82
2022/02/02 22:03:39;;;;;;;3.88;1.55;;;;;;;;;;5073178;28;20032;-83
2022/02/02 22:06:05;;;;;;;5.13;1.55;;;;;;;;;;5072039;28;20059;-82
2022/02/02 22:08:32;;;;;;;3.75;1.30;;;;;;;;;;5069024;28;20033;-82
2022/02/02 22:10:58;;;;;;;5.07;1.73;;;;;;;;;;5070890;28;20032;-81
2022/02/02 22:13:34;;;;;;;3.85;1.23;;;;;;;;;;5078803;28;20076;-81
2022/02/02 22:16:06;;;;;;;3.97;1.63;;;;;;;;;;5067213;28;20528;-81
2022/02/02 22:18:32;;;;;;;6.72;1.50;;;;;;;;;;5068119;28;20134;-82
2022/02/02 22:20:58;;;;;;;5.10;1.70;;;;;;;;;;5072866;28;20025;-82
2022/02/02 22:23:25;;;;;;;4.10;1.50;;;;;;;;;;5070578;28;20020;-82
2022/02/02 22:25:51;;;;;;;5.63;1.52;;;;;;;;;;5085279;28;20021;-81
2022/02/02 22:28:17;;;;;;;5.13;1.95;;;;;;;;;;5051513;28;20021;-82
2022/02/02 22:30:43;;;;;;;4.80;1.40;;;;;;;;;;5067746;28;20124;-81
2022/02/02 22:33:10;;;;;;;5.88;1.67;;;;;;;;;;5051022;28;20029;-81
2022/02/02 22:35:36;;;;;;;5.32;1.58;;;;;;;;;;5051953;28;20036;-81
2022/02/02 22:38:04;;;;;;;4.90;1.65;;;;;;;;;;5051853;28;20021;-80
2022/02/02 22:40:30;;;;;;;4.88;1.60;;;;;;;;;;5051201;28;20029;-81
2022/02/02 22:42:57;;;;;;;6.13;1.58;;;;;;;;;;5059020;28;20052;-83
2022/02/02 22:45:23;;;;;;;4.38;1.88;;;;;;;;;;5083726;28;20032;-81
2022/02/02 22:47:50;;;;;;;4.43;1.30;;;;;;;;;;5051277;28;20032;-82
2022/02/02 22:50:19;;;;;;;4.53;1.40;;;;;;;;;;5069800;28;20025;-82
2022/02/02 22:52:48;;;;;;;5.30;1.60;;;;;;;;;;5068715;28;20128;-82
2022/02/02 22:55:16;;;;;;;4.95;1.50;;;;;;;;;;5053386;28;20044;-81
2022/02/02 22:57:50;;;;;;;3.22;1.40;;;;;;;;;;5051373;28;20025;-82
2022/02/02 23:00:18;;;;;;;4.93;1.67;;;;;;;;;;5051445;28;20025;-81
2022/02/02 23:02:53;;;;;;;5.43;1.50;;;;;;;;;;5086008;28;20020;-82
2022/02/02 23:05:23;;;;;;;4.03;1.50;;;;;;;;;;5086721;28;20107;-81
2022/02/02 23:07:49;;;;;;;4.45;1.60;;;;;;;;;;5054780;28;20031;-82
2022/02/02 23:10:15;;;;;;;4.47;1.70;;;;;;;;;;5065309;28;20105;-82
2022/02/02 23:12:41;;;;;;;4.97;1.67;;;;;;;;;;5071357;28;20027;-82
2022/02/02 23:15:09;;;;;;;3.97;1.40;;;;;;;;;;5069217;28;20040;-82
2022/02/02 23:17:36;;;;;;;6.60;1.80;;;;;;;;;;5071333;28;20036;-81
2022/02/02 23:20:03;;;;;;;3.83;1.73;;;;;;;;;;5070947;28;20012;-82
2022/02/02 23:22:31;;;;;;;4.65;1.67;;;;;;;;;;5082108;28;20062;-83
2022/02/02 23:25:02;;;;;;;6.10;1.75;;;;;;;;;;5056473;28;20036;-82
2022/02/02 23:27:32;;;;;;;8.40;1.77;;;;;;;;;;5053016;28;20054;-82
2022/02/02 23:29:59;;;;;;;3.40;1.40;;;;;;;;;;5051536;28;20051;-83
2022/02/02 23:32:27;;;;;;;3.22;1.30;;;;;;;;;;5055223;28;20037;-82
2022/02/02 23:34:54;;;;;;;4.55;1.40;;;;;;;;;;5071282;28;20045;-82
2022/02/02 23:37:25;;;;;;;5.82;1.52;;;;;;;;;;5070915;28;20066;-83
2022/02/02 23:39:51;;;;;;;4.63;1.67;;;;;;;;;;5078874;28;20047;-81
2022/02/02 23:42:20;;;;;;;5.57;1.58;;;;;;;;;;5053891;28;20029;-82
2022/02/02 23:44:50;;;;;;;5.47;1.70;;;;;;;;;;5053332;28;20029;-83
2022/02/02 23:47:18;;;;;;;5.28;1.60;;;;;;;;;;5070448;28;20032;-83
2022/02/02 23:49:55;;;;;;;4.45;1.25;;;;;;;;;;5088557;28;20055;-84
2022/02/02 23:52:33;;;;;;;4.65;1.35;;;;;;;;;;5079561;28;20048;-82
2022/02/02 23:55:01;;;;;;;5.15;1.50;;;;;;;;;;5051613;28;20037;-83
